Time;durP1;ratioP1;P1;durP2;ratioP2;P2;SDS_P1;SDS_P2;PMS_P1;PMS_P2;Temp;Humidity;BMP_temperature;BMP_pressure;BME280_temperature;BME280_humidity;BME280_pressure;Samples;Min_cycle;Max_cycle;Signal;HPM_P1;HPM_P2
2023/11/06 00:00:40;;;;;;;10.40;7.10;;;12.10;97.90;;;;;;5061946;28;20209;-64
2023/11/06 00:03:08;;;;;;;11.63;7.17;;;12.10;97.90;;;;;;5055491;28;20207;-64
2023/11/06 00:05:37;;;;;;;8.80;7.83;;;12.00;97.90;;;;;;5055798;28;20209;-66
2023/11/06 00:08:05;;;;;;;10.27;8.73;;;12.00;98.00;;;;;;5049503;28;20202;-66
2023/11/06 00:10:32;;;;;;;10.23;6.87;;;12.00;98.00;;;;;;5047462;28;20499;-65
2023/11/06 00:13:00;;;;;;;11.00;8.00;;;12.00;97.90;;;;;;5058846;28;20287;-66
2023/11/06 00:15:27;;;;;;;11.43;8.60;;;11.90;97.90;;;;;;5063736;28;20215;-66
2023/11/06 00:17:55;;;;;;;10.20;8.20;;;11.90;97.90;;;;;;5051227;28;20874;-65
2023/11/06 00:20:22;;;;;;;10.70;8.20;;;11.90;97.90;;;;;;5049225;28;20195;-67
2023/11/06 00:22:49;;;;;;;10.23;7.57;;;11.90;97.90;;;;;;5049043;28;20541;-66
2023/11/06 00:25:16;;;;;;;14.40;8.10;;;11.90;97.90;;;;;;5058051;28;20222;-66
2023/11/06 00:27:44;;;;;;;13.73;7.53;;;11.80;97.90;;;;;;5044777;28;20224;-66
2023/11/06 00:30:11;;;;;;;12.53;9.13;;;11.80;97.80;;;;;;5058803;28;20214;-66
2023/11/06 00:32:38;;;;;;;10.60;9.50;;;11.80;97.70;;;;;;5047638;28;20250;-65
2023/11/06 00:35:05;;;;;;;13.20;9.53;;;11.80;97.80;;;;;;5055123;28;20237;-66
2023/11/06 00:37:33;;;;;;;11.87;9.23;;;11.70;97.90;;;;;;5047286;28;20672;-66
2023/11/06 00:40:00;;;;;;;11.33;9.30;;;11.80;98.10;;;;;;5061274;28;20268;-65
2023/11/06 00:42:27;;;;;;;12.57;9.73;;;11.80;98.00;;;;;;5064110;28;20222;-65
2023/11/06 00:44:54;;;;;;;12.43;8.90;;;11.80;98.10;;;;;;5059203;28;20208;-66
2023/11/06 00:47:22;;;;;;;10.40;8.10;;;11.70;98.10;;;;;;5031215;28;20205;-65
2023/11/06 00:49:50;;;;;;;12.87;9.13;;;11.80;98.10;;;;;;5057099;28;20210;-65
2023/11/06 00:52:17;;;;;;;13.40;9.73;;;11.70;98.10;;;;;;5060797;28;20902;-65
2023/11/06 00:54:44;;;;;;;16.27;10.37;;;11.70;98.10;;;;;;5042137;28;20772;-65
2023/11/06 00:57:12;;;;;;;11.63;9.10;;;11.70;98.10;;;;;;5044794;28;20284;-65
2023/11/06 00:59:39;;;;;;;13.37;9.47;;;11.80;98.10;;;;;;5042167;28;20209;-65
2023/11/06 01:02:05;;;;;;;14.73;10.63;;;11.80;98.10;;;;;;5060846;28;20325;-66
2023/11/06 01:04:32;;;;;;;20.10;10.93;;;11.70;98.10;;;;;;5060562;28;20200;-66
2023/11/06 01:07:00;;;;;;;14.97;10.57;;;11.70;98.10;;;;;;5044106;28;20270;-66
2023/11/06 01:09:27;;;;;;;12.60;8.93;;;11.70;98.10;;;;;;5065476;28;20216;-66
2023/11/06 01:11:54;;;;;;;11.50;8.07;;;11.70;98.00;;;;;;5038515;28;20626;-65
2023/11/06 01:14:21;;;;;;;14.67;9.47;;;11.70;98.00;;;;;;5060880;28;20550;-66
2023/11/06 01:16:48;;;;;;;11.07;9.17;;;11.60;98.00;;;;;;5047777;28;20201;-66
2023/11/06 01:19:15;;;;;;;12.37;9.77;;;11.60;98.10;;;;;;5059305;28;20194;-66
2023/11/06 01:21:42;;;;;;;11.63;8.63;;;11.60;98.10;;;;;;5056454;28;20435;-66
2023/11/06 01:24:11;;;;;;;13.57;9.20;;;11.50;98.00;;;;;;5059640;28;20218;-66
2023/11/06 01:26:42;;;;;;;13.27;8.33;;;11.50;98.10;;;;;;5050283;28;20201;-66
2023/11/06 01:29:11;;;;;;;15.27;9.47;;;11.40;98.00;;;;;;5059371;28;20267;-66
2023/11/06 01:31:38;;;;;;;11.03;8.70;;;11.40;98.10;;;;;;5062576;28;20252;-66
2023/11/06 01:34:06;;;;;;;12.53;9.70;;;11.40;98.10;;;;;;5061400;28;20224;-63
2023/11/06 01:36:33;;;;;;;14.07;9.57;;;11.40;98.10;;;;;;5057649;28;20253;-65
2023/11/06 01:39:00;;;;;;;14.50;9.60;;;11.40;98.10;;;;;;5033615;28;20667;-65
2023/11/06 01:41:27;;;;;;;10.73;8.40;;;11.40;98.10;;;;;;5063335;28;20258;-64
2023/11/06 01:43:54;;;;;;;10.43;9.13;;;11.30;98.00;;;;;;5058723;28;20642;-65
2023/11/06 01:46:22;;;;;;;11.10;9.13;;;11.30;97.90;;;;;;5060993;28;20209;-65
2023/11/06 01:48:50;;;;;;;13.17;9.47;;;11.30;97.80;;;;;;5048275;28;20224;-65
2023/11/06 01:51:17;;;;;;;10.53;8.83;;;11.20;97.80;;;;;;5060150;28;20205;-65
2023/11/06 01:53:44;;;;;;;16.53;10.00;;;11.20;97.90;;;;;;5057106;28;20307;-65
2023/11/06 01:56:12;;;;;;;12.57;9.67;;;11.20;98.00;;;;;;5064926;28;20209;-65
2023/11/06 01:58:39;;;;;;;13.70;9.83;;;11.20;98.10;;;;;;5044628;28;20267;-65
2023/11/06 02:01:08;;;;;;;12.40;9.67;;;11.20;98.10;;;;;;5049257;28;20194;-64
2023/11/06 02:03:35;;;;;;;17.13;10.13;;;11.20;98.10;;;;;;5047270;28;20210;-65
2023/11/06 02:06:03;;;;;;;12.77;9.97;;;11.10;98.10;;;;;;5055042;28;20219;-65
2023/11/06 02:08:32;;;;;;;12.80;10.17;;;11.10;98.40;;;;;;5051241;28;20635;-66
2023/11/06 02:11:03;;;;;;;13.10;9.83;;;11.10;98.20;;;;;;5029255;28;20529;-64
2023/11/06 02:13:31;;;;;;;15.57;10.07;;;11.10;98.20;;;;;;5063724;28;20300;-65
2023/11/06 02:15:59;;;;;;;19.73;11.70;;;11.10;98.10;;;;;;5043396;28;20197;-65
2023/11/06 02:18:26;;;;;;;13.20;10.27;;;11.10;98.10;;;;;;5038605;28;20982;-64
2023/11/06 02:20:56;;;;;;;15.83;10.97;;;11.00;98.20;;;;;;5051300;28;20190;-64
2023/11/06 02:23:28;;;;;;;16.67;11.43;;;11.00;98.30;;;;;;5064253;28;20209;-64
2023/11/06 02:25:55;;;;;;;15.90;11.90;;;11.00;98.40;;;;;;5047403;28;20233;-64
2023/11/06 02:28:23;;;;;;;15.77;10.90;;;11.00;98.40;;;;;;5059401;28;20658;-64
2023/11/06 02:30:52;;;;;;;14.27;10.80;;;11.00;98.50;;;;;;5029985;28;20205;-65
2023/11/06 02:33:20;;;;;;;14.03;9.63;;;11.00;98.60;;;;;;5034871;28;20221;-64
2023/11/06 02:35:50;;;;;;;14.10;10.23;;;11.00;98.60;;;;;;5063872;28;20607;-64
2023/11/06 02:38:17;;;;;;;12.87;11.00;;;11.00;98.50;;;;;;5064114;28;20259;-65
2023/11/06 02:40:44;;;;;;;16.93;10.17;;;10.90;98.50;;;;;;5063918;28;20201;-65
2023/11/06 02:43:11;;;;;;;10.77;9.67;;;10.90;98.50;;;;;;5047122;28;20209;-64
2023/11/06 02:45:38;;;;;;;13.47;9.10;;;10.90;98.50;;;;;;5051837;28;20208;-65
2023/11/06 02:48:05;;;;;;;14.00;8.70;;;10.90;98.50;;;;;;5066185;28;20200;-65
2023/11/06 02:50:33;;;;;;;10.63;7.83;;;10.90;98.50;;;;;;5060483;28;20204;-64
2023/11/06 02:53:00;;;;;;;13.37;9.80;;;10.90;98.50;;;;;;5047317;28;20238;-65
2023/11/06 02:55:27;;;;;;;14.27;10.10;;;10.80;98.20;;;;;;5070218;28;20538;-65
2023/11/06 02:57:54;;;;;;;13.77;8.93;;;10.80;98.10;;;;;;5062935;28;20242;-65
2023/11/06 03:00:21;;;;;;;16.67;11.80;;;10.80;98.10;;;;;;5065596;28;20257;-65
2023/11/06 03:02:48;;;;;;;15.23;10.57;;;10.80;98.10;;;;;;5060877;28;20259;-65
2023/11/06 03:05:18;;;;;;;14.63;10.57;;;10.80;98.20;;;;;;5058789;28;20289;-65
2023/11/06 03:07:45;;;;;;;14.97;10.67;;;10.80;98.20;;;;;;5061734;28;20259;-65
2023/11/06 03:10:13;;;;;;;10.63;9.53;;;10.80;98.30;;;;;;5058278;28;20204;-65
2023/11/06 03:12:41;;;;;;;14.43;10.50;;;10.80;98.30;;;;;;5067896;28;20292;-65
2023/11/06 03:15:10;;;;;;;14.67;10.57;;;10.80;98.40;;;;;;5048365;28;20227;-65
2023/11/06 03:17:37;;;;;;;13.13;10.23;;;10.80;98.50;;;;;;5058689;28;20278;-65
2023/11/06 03:20:10;;;;;;;11.50;9.03;;;10.80;98.50;;;;;;5060395;28;20715;-65
2023/11/06 03:22:38;;;;;;;12.17;9.00;;;10.80;98.50;;;;;;5049264;28;20214;-65
2023/11/06 03:25:09;;;;;;;9.83;8.70;;;10.70;98.40;;;;;;5059884;28;20202;-65
2023/11/06 03:27:36;;;;;;;12.73;8.53;;;10.70;98.40;;;;;;5058987;28;20255;-66
2023/11/06 03:30:04;;;;;;;12.77;9.43;;;10.70;98.40;;;;;;5044426;28;20220;-65
2023/11/06 03:32:32;;;;;;;12.80;8.53;;;10.60;98.30;;;;;;5057207;28;20277;-65
2023/11/06 03:35:00;;;;;;;12.17;9.47;;;10.60;98.30;;;;;;5041687;28;20202;-64
2023/11/06 03:37:27;;;;;;;17.37;9.37;;;10.50;98.30;;;;;;5066194;28;20218;-65
2023/11/06 03:39:54;;;;;;;9.73;8.20;;;10.50;98.30;;;;;;5046947;28;20205;-65
2023/11/06 03:42:21;;;;;;;9.00;7.30;;;10.50;98.30;;;;;;5045233;28;20235;-65
2023/11/06 03:44:50;;;;;;;9.70;8.50;;;10.40;98.30;;;;;;5046638;28;20655;-65
2023/11/06 03:47:17;;;;;;;11.03;8.30;;;10.40;98.30;;;;;;5061451;28;20266;-65
2023/11/06 03:49:44;;;;;;;14.77;9.30;;;10.40;98.40;;;;;;5064952;28;20187;-65
2023/11/06 03:52:11;;;;;;;11.53;7.03;;;10.40;98.50;;;;;;5064929;28;20199;-65
2023/11/06 03:54:40;;;;;;;11.43;8.77;;;10.30;98.50;;;;;;5059157;28;20224;-65
2023/11/06 03:57:07;;;;;;;11.20;9.20;;;10.30;98.40;;;;;;5060525;28;20208;-65
2023/11/06 03:59:34;;;;;;;8.80;7.83;;;10.30;98.40;;;;;;5060112;28;20264;-64
2023/11/06 04:02:01;;;;;;;14.50;8.90;;;10.30;98.40;;;;;;5061187;28;20912;-65
2023/11/06 04:04:28;;;;;;;15.07;10.07;;;10.30;98.40;;;;;;5059897;28;20670;-65
2023/11/06 04:06:55;;;;;;;12.60;9.47;;;10.30;98.40;;;;;;5060498;28;20193;-65
2023/11/06 04:09:22;;;;;;;12.47;8.70;;;10.30;98.50;;;;;;5061440;28;20604;-65
2023/11/06 04:11:49;;;;;;;13.07;9.30;;;10.30;98.40;;;;;;5059857;28;20258;-65
2023/11/06 04:14:16;;;;;;;10.30;9.00;;;10.30;98.30;;;;;;5060587;28;20223;-65
2023/11/06 04:16:43;;;;;;;14.07;9.27;;;10.20;98.30;;;;;;5060960;28;20209;-65
2023/11/06 04:19:11;;;;;;;12.80;9.37;;;10.20;98.40;;;;;;5060924;28;20236;-65
2023/11/06 04:21:38;;;;;;;13.47;9.30;;;10.20;98.50;;;;;;5059318;28;20196;-64
2023/11/06 04:24:06;;;;;;;10.77;9.63;;;10.20;98.50;;;;;;5058672;28;20532;-65
2023/11/06 04:26:33;;;;;;;12.47;9.73;;;10.30;98.60;;;;;;5064810;28;20203;-65
2023/11/06 04:29:00;;;;;;;11.27;8.87;;;10.30;98.60;;;;;;5062524;28;20266;-65
2023/11/06 04:31:27;;;;;;;12.93;9.47;;;10.20;98.60;;;;;;5059619;28;20561;-65
2023/11/06 04:33:55;;;;;;;16.03;10.73;;;10.30;98.60;;;;;;5059012;28;20268;-65
2023/11/06 04:36:22;;;;;;;14.20;10.67;;;10.30;98.50;;;;;;5064047;28;20642;-65
2023/11/06 04:38:49;;;;;;;13.87;11.23;;;10.30;98.50;;;;;;5047820;28;20194;-64
2023/11/06 04:41:16;;;;;;;12.23;9.57;;;10.30;98.50;;;;;;5056584;28;20639;-64
2023/11/06 04:43:44;;;;;;;11.83;10.10;;;10.20;98.50;;;;;;5049563;28;20652;-64
2023/11/06 04:46:11;;;;;;;13.63;10.70;;;10.20;98.50;;;;;;5064647;28;20212;-65
2023/11/06 04:48:37;;;;;;;15.00;11.00;;;10.20;98.60;;;;;;5060337;28;20205;-66
2023/11/06 04:51:05;;;;;;;13.83;10.23;;;10.20;98.60;;;;;;5056846;28;20208;-64
2023/11/06 04:53:33;;;;;;;14.33;9.83;;;10.10;98.60;;;;;;5059766;28;20539;-64
2023/11/06 04:56:02;;;;;;;10.00;8.57;;;10.20;98.70;;;;;;5064029;28;20836;-65
2023/11/06 04:58:29;;;;;;;11.30;7.50;;;10.10;98.70;;;;;;5062678;28;20607;-65
2023/11/06 05:00:57;;;;;;;8.47;7.33;;;10.10;98.70;;;;;;5062176;28;20195;-65
2023/11/06 05:03:28;;;;;;;12.27;8.73;;;10.10;98.70;;;;;;5065467;28;20201;-64
2023/11/06 05:05:56;;;;;;;12.80;9.57;;;10.10;98.70;;;;;;5058943;28;20232;-65
2023/11/06 05:08:23;;;;;;;12.93;7.73;;;10.00;98.50;;;;;;5052368;28;20490;-65
2023/11/06 05:10:50;;;;;;;9.83;8.80;;;10.00;98.50;;;;;;5047920;28;20219;-65
2023/11/06 05:13:17;;;;;;;15.50;8.73;;;10.00;98.40;;;;;;5059575;28;20228;-64
2023/11/06 05:15:44;;;;;;;12.93;9.53;;;10.00;98.30;;;;;;5058822;28;20640;-65
2023/11/06 05:18:11;;;;;;;16.63;10.83;;;10.00;98.30;;;;;;5059280;28;20225;-64
2023/11/06 05:20:42;;;;;;;7.93;7.03;;;9.90;98.20;;;;;;5062104;28;20197;-64
2023/11/06 05:23:09;;;;;;;19.03;10.60;;;9.90;98.30;;;;;;5060863;28;20210;-65
2023/11/06 05:25:37;;;;;;;13.93;10.23;;;9.80;98.30;;;;;;5062035;28;20231;-65
2023/11/06 05:28:04;;;;;;;15.53;10.73;;;9.80;98.40;;;;;;5062093;28;20555;-65
2023/11/06 05:30:31;;;;;;;11.70;9.07;;;9.80;98.50;;;;;;5045436;28;20298;-64
2023/11/06 05:32:58;;;;;;;12.90;9.53;;;9.80;98.50;;;;;;5046987;28;20235;-64
2023/11/06 05:35:25;;;;;;;9.80;7.93;;;9.80;98.50;;;;;;5050174;28;20286;-65
2023/11/06 05:37:52;;;;;;;15.37;9.53;;;9.80;98.40;;;;;;5059614;28;20195;-66
2023/11/06 05:40:20;;;;;;;10.50;7.77;;;9.70;98.30;;;;;;5063049;28;20200;-65
2023/11/06 05:42:47;;;;;;;10.13;8.30;;;9.60;98.30;;;;;;5062532;28;20283;-65
2023/11/06 05:45:15;;;;;;;9.60;7.83;;;9.60;98.30;;;;;;5065097;28;20194;-65
2023/11/06 05:47:42;;;;;;;10.10;8.20;;;9.60;98.40;;;;;;5058852;28;20208;-65
2023/11/06 05:50:09;;;;;;;15.17;8.80;;;9.60;98.40;;;;;;5058150;28;20214;-65
2023/11/06 05:52:39;;;;;;;11.07;7.83;;;9.60;98.50;;;;;;5062064;28;20548;-65
2023/11/06 05:55:07;;;;;;;9.57;7.80;;;9.50;98.50;;;;;;5057565;28;20222;-65
2023/11/06 05:57:34;;;;;;;9.27;7.97;;;9.50;98.60;;;;;;5063845;28;20209;-65
2023/11/06 06:00:01;;;;;;;9.23;7.90;;;9.50;98.60;;;;;;5064877;28;20238;-65
2023/11/06 06:02:38;;;;;;;11.80;8.50;;;9.50;98.50;;;;;;5060840;28;20277;-65
2023/11/06 06:05:05;;;;;;;10.33;7.93;;;9.40;98.50;;;;;;5059126;28;20227;-65
2023/11/06 06:07:32;;;;;;;10.30;8.60;;;9.40;98.60;;;;;;5054084;28;20233;-65
2023/11/06 06:09:59;;;;;;;10.90;7.80;;;9.40;98.60;;;;;;5061733;28;20199;-65
2023/11/06 06:12:28;;;;;;;19.83;9.30;;;9.40;98.60;;;;;;5060496;28;20634;-64
2023/11/06 06:14:55;;;;;;;12.43;10.27;;;9.40;98.70;;;;;;5064598;28;20243;-64
2023/11/06 06:17:23;;;;;;;10.40;8.07;;;9.40;98.80;;;;;;5041804;28;20208;-65
2023/11/06 06:19:50;;;;;;;10.70;7.93;;;9.40;99.00;;;;;;5062176;28;20199;-64
2023/11/06 06:22:17;;;;;;;13.17;8.00;;;9.40;99.10;;;;;;5060596;28;20210;-65
2023/11/06 06:24:45;;;;;;;11.63;8.03;;;9.50;99.10;;;;;;5066890;28;20212;-65
2023/11/06 06:27:12;;;;;;;8.87;7.57;;;9.50;99.20;;;;;;5062555;28;20689;-65
2023/11/06 06:29:40;;;;;;;7.90;6.43;;;9.50;99.20;;;;;;5044692;28;20618;-65
2023/11/06 06:32:09;;;;;;;7.33;6.63;;;9.50;99.10;;;;;;5057692;28;20263;-67
2023/11/06 06:34:37;;;;;;;10.27;6.40;;;9.60;99.10;;;;;;5058809;28;20310;-65
2023/11/06 06:37:08;;;;;;;6.77;6.17;;;9.60;99.00;;;;;;5048630;28;20219;-64
2023/11/06 06:39:35;;;;;;;11.37;7.57;;;9.60;99.00;;;;;;5058485;28;20199;-65
2023/11/06 06:42:02;;;;;;;12.17;8.33;;;9.60;99.00;;;;;;5060955;28;20212;-65
2023/11/06 06:44:29;;;;;;;10.03;7.47;;;9.60;99.00;;;;;;5055814;28;20298;-65
2023/11/06 06:46:58;;;;;;;16.00;11.37;;;9.60;98.90;;;;;;5044752;28;20199;-64
2023/11/06 06:49:28;;;;;;;18.53;10.60;;;9.70;98.90;;;;;;5036820;28;20240;-65
2023/11/06 06:51:55;;;;;;;20.70;10.37;;;9.70;99.00;;;;;;5060621;28;20250;-65
2023/11/06 06:54:22;;;;;;;14.90;11.37;;;9.80;99.10;;;;;;5061762;28;20215;-65
2023/11/06 06:56:52;;;;;;;16.37;10.40;;;9.90;99.40;;;;;;5027524;28;20208;-65
2023/11/06 06:59:19;;;;;;;13.40;10.63;;;10.10;99.30;;;;;;5058225;28;20288;-65
2023/11/06 07:01:47;;;;;;;12.47;10.33;;;10.20;99.20;;;;;;5032701;28;20262;-65
2023/11/06 07:04:14;;;;;;;14.17;11.53;;;10.30;99.20;;;;;;5048981;28;20257;-65
2023/11/06 07:06:41;;;;;;;13.77;11.67;;;10.50;99.30;;;;;;5048187;28;20216;-66
2023/11/06 07:09:09;;;;;;;15.23;12.33;;;10.70;99.00;;;;;;5064970;28;20211;-66
2023/11/06 07:11:36;;;;;;;16.17;10.93;;;11.00;98.60;;;;;;5060853;28;20221;-66
2023/11/06 07:14:03;;;;;;;18.43;11.50;;;11.20;98.00;;;;;;5066387;28;20218;-65
2023/11/06 07:16:30;;;;;;;14.97;11.50;;;11.20;97.80;;;;;;5066397;28;20194;-65
2023/11/06 07:18:57;;;;;;;18.87;11.03;;;11.20;97.90;;;;;;5061909;28;20235;-65
2023/11/06 07:21:25;;;;;;;12.33;10.70;;;11.30;98.20;;;;;;5058618;28;20564;-65
2023/11/06 07:23:52;;;;;;;19.90;11.80;;;11.40;98.30;;;;;;5062568;28;20544;-65
2023/11/06 07:26:19;;;;;;;16.73;11.40;;;11.60;98.20;;;;;;5052759;28;20208;-66
2023/11/06 07:28:46;;;;;;;14.23;10.93;;;11.90;98.10;;;;;;5060625;28;20211;-65
2023/11/06 07:31:13;;;;;;;14.77;12.30;;;12.10;98.10;;;;;;5061795;28;20254;-65
2023/11/06 07:33:40;;;;;;;13.97;11.07;;;12.20;97.60;;;;;;5068189;28;20535;-66
2023/11/06 07:36:08;;;;;;;15.90;10.93;;;12.30;97.60;;;;;;5058420;28;20271;-66
2023/11/06 07:38:36;;;;;;;17.00;11.70;;;12.40;97.60;;;;;;5062062;28;20288;-65
2023/11/06 07:41:03;;;;;;;14.43;10.83;;;12.60;97.70;;;;;;5064349;28;20205;-66
2023/11/06 07:43:30;;;;;;;15.83;10.60;;;12.60;97.80;;;;;;5059112;28;20279;-65
2023/11/06 07:45:57;;;;;;;13.60;10.33;;;12.70;97.80;;;;;;5060192;28;20629;-65
2023/11/06 07:48:24;;;;;;;14.90;10.73;;;12.70;97.80;;;;;;5061030;28;20194;-66
2023/11/06 07:50:54;;;;;;;14.47;10.53;;;12.80;97.90;;;;;;5055328;28;20198;-66
2023/11/06 07:53:21;;;;;;;14.70;11.13;;;12.90;98.00;;;;;;5059741;28;20190;-66
2023/11/06 07:55:48;;;;;;;16.20;10.63;;;12.90;98.10;;;;;;5066398;28;20240;-66
2023/11/06 07:58:15;;;;;;;16.10;9.80;;;13.00;98.20;;;;;;5057591;28;20223;-66
2023/11/06 08:00:43;;;;;;;13.60;10.97;;;13.10;98.30;;;;;;5062232;28;20576;-66
2023/11/06 08:03:16;;;;;;;16.70;10.00;;;13.20;98.20;;;;;;5063249;28;20193;-65
2023/11/06 08:05:44;;;;;;;17.33;11.63;;;13.30;97.90;;;;;;5046628;28;20504;-65
2023/11/06 08:08:11;;;;;;;13.87;10.53;;;13.30;97.90;;;;;;5060510;28;20210;-66
2023/11/06 08:10:38;;;;;;;13.37;11.20;;;13.50;98.00;;;;;;5063610;28;20536;-65
2023/11/06 08:13:05;;;;;;;13.60;11.03;;;13.60;97.80;;;;;;5049825;28;20630;-65
2023/11/06 08:15:33;;;;;;;14.43;10.70;;;13.70;97.60;;;;;;5063105;28;20313;-65
2023/11/06 08:18:00;;;;;;;13.33;10.17;;;13.80;97.40;;;;;;5064791;28;20553;-65
2023/11/06 08:20:28;;;;;;;18.63;10.33;;;13.90;97.20;;;;;;5060889;28;20208;-66
2023/11/06 08:22:56;;;;;;;11.77;10.10;;;14.00;97.10;;;;;;5058668;28;20511;-66
2023/11/06 08:25:25;;;;;;;13.67;10.70;;;14.10;97.10;;;;;;5058779;28;20213;-66
2023/11/06 08:27:53;;;;;;;11.77;10.57;;;14.30;96.90;;;;;;5061442;28;20209;-65
2023/11/06 08:30:20;;;;;;;15.23;11.53;;;14.40;96.30;;;;;;5045482;28;20205;-65
2023/11/06 08:32:47;;;;;;;18.30;12.53;;;14.50;96.20;;;;;;5057359;28;20275;-65
2023/11/06 08:35:14;;;;;;;17.27;12.47;;;14.60;96.00;;;;;;5053042;28;20279;-67
2023/11/06 08:37:41;;;;;;;17.87;12.33;;;14.60;95.70;;;;;;5065228;28;20580;-67
2023/11/06 08:40:09;;;;;;;16.67;12.40;;;14.70;95.70;;;;;;5056699;28;20306;-64
2023/11/06 08:42:37;;;;;;;13.77;12.10;;;14.70;95.60;;;;;;5028474;28;20197;-65
2023/11/06 08:45:06;;;;;;;15.63;11.20;;;14.80;95.40;;;;;;5042534;28;20213;-65
2023/11/06 08:47:33;;;;;;;12.90;11.57;;;14.80;95.40;;;;;;5061098;28;20281;-65
2023/11/06 08:50:00;;;;;;;15.37;11.13;;;14.90;95.20;;;;;;5065889;28;20213;-64
2023/11/06 08:52:27;;;;;;;13.37;11.93;;;15.00;95.10;;;;;;5061178;28;20212;-64
2023/11/06 08:54:54;;;;;;;14.13;11.83;;;15.00;95.20;;;;;;5049669;28;20229;-64
2023/11/06 08:57:21;;;;;;;14.43;11.93;;;15.10;95.20;;;;;;5057494;28;20201;-65
2023/11/06 08:59:48;;;;;;;17.67;12.30;;;15.20;95.20;;;;;;5057780;28;20289;-66
2023/11/06 09:02:15;;;;;;;15.50;13.40;;;15.30;95.10;;;;;;5061166;28;20191;-64
2023/11/06 09:04:43;;;;;;;15.70;12.40;;;15.30;95.10;;;;;;5044262;28;20301;-64
2023/11/06 09:07:10;;;;;;;16.03;13.37;;;15.40;95.00;;;;;;5050175;28;20660;-65
2023/11/06 09:09:40;;;;;;;14.80;13.30;;;15.50;95.00;;;;;;5050853;28;20288;-65
2023/11/06 09:12:07;;;;;;;17.77;14.13;;;15.50;94.90;;;;;;5046108;28;20213;-65
2023/11/06 09:14:34;;;;;;;17.00;13.23;;;15.60;94.40;;;;;;5060853;28;20691;-64
2023/11/06 09:17:03;;;;;;;15.37;13.77;;;15.70;94.50;;;;;;5064820;28;20209;-65
2023/11/06 09:19:30;;;;;;;19.93;14.30;;;15.70;94.40;;;;;;5058901;28;20200;-65
2023/11/06 09:21:57;;;;;;;20.30;15.13;;;15.80;94.50;;;;;;5062402;28;20221;-65
2023/11/06 09:24:24;;;;;;;20.23;17.50;;;15.80;94.40;;;;;;5062611;28;20209;-64
2023/11/06 09:26:51;;;;;;;18.90;13.97;;;15.90;94.40;;;;;;5064798;28;20213;-65
2023/11/06 09:29:18;;;;;;;23.27;14.70;;;16.00;94.30;;;;;;5063332;28;20587;-64
2023/11/06 09:31:47;;;;;;;15.93;14.27;;;16.00;94.20;;;;;;5058588;28;20325;-65
2023/11/06 09:34:14;;;;;;;17.90;14.87;;;16.10;94.20;;;;;;5047021;28;20200;-64
2023/11/06 09:36:42;;;;;;;17.77;15.07;;;16.20;94.20;;;;;;5045021;28;20200;-64
2023/11/06 09:39:09;;;;;;;19.67;15.43;;;16.30;94.10;;;;;;5040196;28;20228;-64
2023/11/06 09:41:37;;;;;;;15.37;13.47;;;16.40;94.10;;;;;;5041279;28;20269;-64
2023/11/06 09:44:05;;;;;;;16.67;13.17;;;16.40;94.00;;;;;;5043657;28;20626;-65
2023/11/06 09:46:33;;;;;;;16.93;13.67;;;16.50;94.30;;;;;;5040745;28;20207;-65
2023/11/06 09:49:06;;;;;;;16.73;15.03;;;16.60;94.10;;;;;;5041756;28;20216;-64
2023/11/06 09:51:36;;;;;;;20.23;15.13;;;16.70;94.10;;;;;;5043856;28;20809;-64
2023/11/06 09:54:04;;;;;;;17.93;14.40;;;16.80;94.00;;;;;;5040919;28;20245;-63
2023/11/06 09:56:33;;;;;;;15.50;13.50;;;16.90;93.90;;;;;;5047411;28;20203;-65
2023/11/06 09:59:02;;;;;;;16.63;14.87;;;17.00;93.40;;;;;;5043928;28;20690;-65
2023/11/06 10:01:30;;;;;;;16.40;13.97;;;17.00;93.10;;;;;;5022176;28;20642;-65
2023/11/06 10:03:57;;;;;;;14.70;13.20;;;17.00;93.20;;;;;;5042862;28;20223;-65
2023/11/06 10:06:24;;;;;;;15.70;13.57;;;17.10;92.90;;;;;;5044009;28;20270;-65
2023/11/06 10:08:51;;;;;;;16.97;14.77;;;17.10;93.00;;;;;;5045077;28;20202;-65
2023/11/06 10:11:25;;;;;;;15.07;13.43;;;17.10;93.00;;;;;;5042313;28;20213;-66
2023/11/06 10:13:54;;;;;;;15.60;13.47;;;17.20;93.00;;;;;;5039294;28;20279;-65
2023/11/06 10:16:24;;;;;;;17.33;13.17;;;17.30;92.80;;;;;;5040628;28;20208;-65
2023/11/06 10:19:08;;;;;;;14.57;13.17;;;17.30;92.90;;;;;;5022515;28;20683;-64
2023/11/06 10:21:35;;;;;;;13.70;12.23;;;17.30;92.80;;;;;;5015858;28;20199;-64
2023/11/06 10:24:04;;;;;;;15.00;13.30;;;17.50;92.70;;;;;;5035613;28;20214;-64
2023/11/06 10:26:32;;;;;;;19.20;13.20;;;17.50;92.60;;;;;;5044961;28;20220;-64
2023/11/06 10:29:13;;;;;;;16.77;13.20;;;17.60;92.20;;;;;;5046363;28;20219;-65
2023/11/06 10:31:44;;;;;;;16.57;13.20;;;17.70;92.00;;;;;;5045337;28;21009;-65
2023/11/06 10:34:24;;;;;;;18.00;13.43;;;17.70;91.90;;;;;;5046983;28;20204;-65
2023/11/06 10:37:14;;;;;;;15.70;12.93;;;17.80;91.80;;;;;;5046172;28;20628;-65
2023/11/06 10:39:52;;;;;;;14.67;13.13;;;17.80;91.90;;;;;;5026500;28;20521;-64
2023/11/06 10:42:22;;;;;;;17.07;13.17;;;18.00;92.10;;;;;;5047458;28;20204;-66
2023/11/06 10:45:01;;;;;;;15.50;13.97;;;18.00;92.00;;;;;;5049368;28;20237;-64
2023/11/06 10:47:33;;;;;;;15.00;13.40;;;18.10;91.80;;;;;;5032511;28;20588;-65
2023/11/06 10:50:06;;;;;;;17.77;13.67;;;18.20;91.90;;;;;;5041966;28;20213;-64
2023/11/06 10:52:34;;;;;;;15.57;13.10;;;18.30;92.00;;;;;;5027976;28;20300;-64
2023/11/06 10:55:02;;;;;;;17.27;12.37;;;18.40;91.80;;;;;;5041970;28;20316;-64
2023/11/06 10:57:40;;;;;;;15.33;13.73;;;18.50;91.60;;;;;;5034429;28;20198;-64
2023/11/06 11:00:11;;;;;;;15.63;11.97;;;18.60;91.50;;;;;;5046544;28;20199;-65
2023/11/06 11:02:45;;;;;;;15.27;12.23;;;18.60;91.20;;;;;;5043082;28;20194;-63
2023/11/06 11:05:14;;;;;;;19.73;12.37;;;18.80;90.90;;;;;;5051657;28;20559;-65
2023/11/06 11:07:43;;;;;;;12.97;11.67;;;18.80;90.80;;;;;;5043951;28;20208;-65
2023/11/06 11:10:14;;;;;;;13.43;11.77;;;18.90;90.80;;;;;;5048909;28;20214;-64
2023/11/06 11:12:42;;;;;;;13.07;10.87;;;19.00;90.60;;;;;;5046467;28;20208;-65
2023/11/06 11:15:09;;;;;;;14.43;11.33;;;19.10;90.40;;;;;;5041289;28;20713;-65
2023/11/06 11:17:37;;;;;;;12.07;10.70;;;19.20;90.40;;;;;;5032924;28;20217;-65
2023/11/06 11:20:07;;;;;;;11.03;9.43;;;19.30;90.20;;;;;;5049377;28;20673;-64
2023/11/06 11:23:10;;;;;;;13.13;10.30;;;19.40;89.60;;;;;;5049386;28;20509;-64
2023/11/06 11:25:54;;;;;;;13.23;10.67;;;19.40;88.90;;;;;;5043021;28;20577;-64
2023/11/06 11:28:21;;;;;;;10.70;9.57;;;19.50;88.40;;;;;;5038985;28;20240;-64
2023/11/06 11:30:50;;;;;;;14.63;10.27;;;19.50;88.10;;;;;;5026061;28;20518;-64
2023/11/06 11:33:54;;;;;;;16.17;10.07;;;19.60;87.50;;;;;;5048960;28;20239;-64
2023/11/06 11:36:35;;;;;;;12.10;10.10;;;19.70;86.90;;;;;;5052655;28;20227;-65
2023/11/06 11:39:14;;;;;;;12.33;9.87;;;19.80;87.00;;;;;;5058479;28;20208;-64
2023/11/06 11:42:04;;;;;;;14.73;9.70;;;19.80;86.80;;;;;;5064168;28;20536;-64
2023/11/06 11:44:32;;;;;;;17.30;9.77;;;19.90;86.40;;;;;;5051384;28;20228;-65
2023/11/06 11:47:00;;;;;;;12.63;8.60;;;19.90;85.70;;;;;;5067743;28;20532;-65
2023/11/06 11:49:38;;;;;;;10.87;8.27;;;19.90;85.80;;;;;;5041949;28;20267;-65
2023/11/06 11:52:07;;;;;;;10.53;8.93;;;19.90;85.50;;;;;;5062685;28;20205;-64
2023/11/06 11:54:37;;;;;;;11.10;8.13;;;20.00;85.80;;;;;;5046986;28;20222;-65
2023/11/06 11:57:08;;;;;;;11.63;8.07;;;20.10;85.70;;;;;;5061461;28;20193;-65
2023/11/06 11:59:40;;;;;;;9.80;7.70;;;20.20;85.00;;;;;;5064923;28;20629;-65
2023/11/06 12:02:22;;;;;;;8.73;6.03;;;20.20;84.30;;;;;;5051616;28;20246;-65
2023/11/06 12:04:53;;;;;;;8.30;6.17;;;20.30;83.40;;;;;;5062174;28;20193;-65
2023/11/06 12:07:20;;;;;;;8.60;6.73;;;20.30;82.80;;;;;;5048317;28;20186;-64
2023/11/06 12:09:50;;;;;;;7.50;5.87;;;20.40;82.10;;;;;;5043844;28;20208;-64
2023/11/06 12:12:23;;;;;;;7.63;5.27;;;20.40;81.30;;;;;;5058332;28;20572;-64
2023/11/06 12:14:51;;;;;;;11.13;6.30;;;20.50;80.70;;;;;;5058220;28;20701;-65
2023/11/06 12:17:33;;;;;;;5.13;3.30;;;20.50;80.70;;;;;;5057226;28;20202;-64
2023/11/06 12:20:14;;;;;;;6.13;3.40;;;20.60;80.30;;;;;;5064554;28;20247;-65
2023/11/06 12:22:46;;;;;;;4.97;3.20;;;20.70;79.00;;;;;;5058704;28;20285;-65
2023/11/06 12:25:16;;;;;;;4.70;2.80;;;20.70;78.00;;;;;;5059946;28;20202;-65
2023/11/06 12:27:43;;;;;;;7.23;3.13;;;20.80;77.80;;;;;;5054132;28;20201;-65
2023/11/06 12:30:14;;;;;;;9.73;4.00;;;20.80;77.10;;;;;;5059566;28;20296;-66
2023/11/06 12:32:41;;;;;;;6.10;2.83;;;20.80;76.20;;;;;;5061250;28;20249;-65
2023/11/06 12:35:19;;;;;;;5.93;3.10;;;20.90;76.20;;;;;;5059475;28;20304;-65
2023/11/06 12:37:48;;;;;;;5.13;2.70;;;20.90;75.30;;;;;;5063488;28;20209;-65
2023/11/06 12:40:22;;;;;;;6.10;3.00;;;20.90;74.70;;;;;;5060643;28;20190;-65